createdAt,value
2023-04-02T00:00:33.890Z,3.15
2023-04-02T00:01:33.862Z,3.10
2023-04-02T00:02:33.956Z,3.05
2023-04-02T00:03:33.960Z,3.11
2023-04-02T00:04:33.846Z,3.18
2023-04-02T00:05:34.204Z,3.08
2023-04-02T00:06:33.880Z,3.06
2023-04-02T00:07:33.869Z,3.04
2023-04-02T00:08:33.864Z,2.99
2023-04-02T00:09:33.912Z,3.01
2023-04-02T00:10:33.918Z,2.97
2023-04-02T00:11:33.900Z,2.98
2023-04-02T00:12:33.898Z,3.04
2023-04-02T00:13:33.953Z,2.97
2023-04-02T00:14:33.920Z,2.94
2023-04-02T00:15:34.196Z,2.96
2023-04-02T00:16:33.931Z,2.95
2023-04-02T00:17:33.916Z,2.89
2023-04-02T00:18:34.009Z,2.86
2023-04-02T00:19:33.916Z,2.82
2023-04-02T00:20:33.926Z,2.85
2023-04-02T00:21:33.881Z,2.86
2023-04-02T00:22:33.890Z,2.84
2023-04-02T00:23:33.906Z,2.88
2023-04-02T00:24:33.877Z,2.81
2023-04-02T00:25:34.016Z,2.79
2023-04-02T00:26:33.851Z,2.87
2023-04-02T00:27:33.824Z,2.83
2023-04-02T00:28:33.832Z,2.78
2023-04-02T00:29:33.801Z,2.82
2023-04-02T00:30:33.783Z,2.88
2023-04-02T00:31:33.834Z,2.81
2023-04-02T00:32:33.863Z,2.78
2023-04-02T00:33:33.793Z,2.80
2023-04-02T00:34:33.831Z,2.81
2023-04-02T00:35:33.954Z,2.81
2023-04-02T00:36:33.778Z,2.80
2023-04-02T00:37:33.764Z,2.78
2023-04-02T00:38:33.774Z,2.82
2023-04-02T00:39:33.844Z,2.72
2023-04-02T00:40:33.819Z,2.76
2023-04-02T00:41:33.834Z,2.74
2023-04-02T00:42:33.831Z,2.79
2023-04-02T00:43:33.851Z,2.77
2023-04-02T00:44:33.814Z,2.74
2023-04-02T00:45:34.068Z,2.79
2023-04-02T00:46:33.833Z,2.74
2023-04-02T00:47:33.847Z,2.69
2023-04-02T00:48:33.807Z,2.68
2023-04-02T00:49:33.798Z,2.67
2023-04-02T00:50:33.753Z,2.67
2023-04-02T00:51:33.721Z,2.67
2023-04-02T00:52:33.732Z,2.62
2023-04-02T00:53:33.741Z,2.68
2023-04-02T00:54:33.716Z,2.65
2023-04-02T00:55:33.959Z,2.65
2023-04-02T00:56:33.694Z,2.64
2023-04-02T00:57:33.764Z,2.60
2023-04-02T00:58:33.708Z,2.61
2023-04-02T00:59:33.731Z,2.60
2023-04-02T01:00:33.688Z,2.52
2023-04-02T01:01:33.729Z,2.61
2023-04-02T01:02:33.787Z,2.54
2023-04-02T01:03:33.901Z,2.61
2023-04-02T01:04:33.665Z,2.60
2023-04-02T01:05:33.869Z,2.53
2023-04-02T01:06:33.646Z,2.51
2023-04-02T01:07:33.650Z,2.52
2023-04-02T01:08:33.682Z,2.59
2023-04-02T01:09:33.677Z,2.56
2023-04-02T01:10:33.693Z,2.51
2023-04-02T01:11:33.710Z,2.51
2023-04-02T01:12:33.665Z,2.50
2023-04-02T01:13:33.665Z,2.56
2023-04-02T01:14:33.702Z,2.56
2023-04-02T01:15:33.968Z,2.57
2023-04-02T01:16:33.696Z,2.47
2023-04-02T01:17:33.726Z,2.46
2023-04-02T01:18:33.681Z,2.43
2023-04-02T01:19:33.701Z,2.47
2023-04-02T01:20:33.711Z,2.52
2023-04-02T01:21:33.692Z,2.51
2023-04-02T01:22:33.696Z,2.47
2023-04-02T01:23:33.663Z,2.46
2023-04-02T01:24:33.686Z,2.47
2023-04-02T01:25:33.980Z,2.45
2023-04-02T01:26:33.647Z,2.39
2023-04-02T01:27:33.657Z,2.45
2023-04-02T01:28:33.664Z,2.43
2023-04-02T01:29:33.636Z,2.38
2023-04-02T01:30:33.611Z,2.40
2023-04-02T01:31:33.645Z,2.44
2023-04-02T01:32:33.636Z,2.41
2023-04-02T01:33:33.650Z,2.42
2023-04-02T01:34:33.646Z,2.40
2023-04-02T01:35:33.963Z,2.43
2023-04-02T01:36:33.609Z,2.46
2023-04-02T01:37:34.015Z,2.39
2023-04-02T01:38:33.616Z,2.45
2023-04-02T01:39:33.647Z,2.40
2023-04-02T01:40:33.639Z,2.37
2023-04-02T01:41:33.619Z,2.41
2023-04-02T01:42:33.624Z,2.38
2023-04-02T01:43:33.624Z,2.40
2023-04-02T01:44:33.586Z,2.38
2023-04-02T01:45:33.811Z,2.46
2023-04-02T01:46:33.609Z,2.39
2023-04-02T01:47:33.555Z,2.39
2023-04-02T01:48:33.553Z,2.42
2023-04-02T01:49:33.605Z,2.37
2023-04-02T01:50:33.582Z,2.26
2023-04-02T01:51:33.593Z,2.37
2023-04-02T01:52:33.592Z,2.34
2023-04-02T01:53:33.611Z,2.36
2023-04-02T01:54:33.596Z,2.32
2023-04-02T01:55:33.837Z,2.35
2023-04-02T01:56:33.577Z,2.38
2023-04-02T01:57:33.609Z,2.31
2023-04-02T01:58:33.604Z,2.28
2023-04-02T01:59:33.566Z,2.32
2023-04-02T02:00:33.576Z,2.34
2023-04-02T02:01:33.519Z,2.31
2023-04-02T02:02:33.658Z,2.27
2023-04-02T02:03:33.538Z,2.33
2023-04-02T02:04:33.569Z,2.27
2023-04-02T02:05:33.747Z,2.24
2023-04-02T02:06:33.561Z,2.23
2023-04-02T02:07:33.553Z,2.27
2023-04-02T02:08:33.524Z,2.24
2023-04-02T02:09:33.535Z,2.34
2023-04-02T02:10:33.544Z,2.23
2023-04-02T02:11:33.536Z,2.25
2023-04-02T02:12:33.525Z,2.20
2023-04-02T02:13:33.544Z,2.25
2023-04-02T02:14:33.516Z,2.20
2023-04-02T02:15:33.854Z,2.22
2023-04-02T02:16:33.506Z,2.25
2023-04-02T02:17:33.571Z,2.32
2023-04-02T02:18:33.500Z,2.27
2023-04-02T02:19:33.454Z,2.38
2023-04-02T02:20:33.460Z,2.39
2023-04-02T02:21:33.480Z,2.39
2023-04-02T02:22:33.486Z,2.36
2023-04-02T02:23:33.496Z,2.38
2023-04-02T02:24:33.534Z,2.48
2023-04-02T02:25:33.813Z,2.44
2023-04-02T02:26:33.522Z,2.45
2023-04-02T02:27:33.516Z,2.43
2023-04-02T02:28:33.570Z,2.47
2023-04-02T02:29:33.591Z,2.44
2023-04-02T02:30:33.615Z,2.43
2023-04-02T02:31:33.593Z,2.46
2023-04-02T02:32:33.583Z,2.45
2023-04-02T02:33:33.604Z,2.46
2023-04-02T02:34:33.574Z,2.50
2023-04-02T02:35:34.003Z,2.44
2023-04-02T02:36:33.620Z,2.47
2023-04-02T02:37:33.597Z,2.45
2023-04-02T02:38:33.564Z,2.50
2023-04-02T02:39:33.563Z,2.42
2023-04-02T02:40:33.576Z,2.48
2023-04-02T02:41:33.555Z,2.48
2023-04-02T02:42:33.557Z,2.43
2023-04-02T02:43:33.488Z,2.48
2023-04-02T02:44:33.502Z,2.51
2023-04-02T02:45:33.824Z,2.53
2023-04-02T02:46:33.470Z,2.45
2023-04-02T02:47:33.504Z,2.43
2023-04-02T02:48:34.055Z,2.48
2023-04-02T02:49:33.477Z,2.46
2023-04-02T02:50:33.484Z,2.45
2023-04-02T02:51:33.444Z,2.47
2023-04-02T02:52:33.449Z,2.47
2023-04-02T02:53:33.464Z,2.41
2023-04-02T02:54:33.487Z,2.40
2023-04-02T02:55:33.726Z,2.44
2023-04-02T02:56:33.511Z,2.42
2023-04-02T02:57:33.554Z,2.45
2023-04-02T02:58:33.500Z,2.44
2023-04-02T02:59:33.529Z,2.38
2023-04-02T03:00:33.539Z,2.41
2023-04-02T03:01:33.607Z,2.42
2023-04-02T03:02:33.645Z,2.40
2023-04-02T03:03:33.620Z,2.40
2023-04-02T03:04:33.493Z,2.43
2023-04-02T03:05:33.771Z,2.38
2023-04-02T03:06:33.539Z,2.38
2023-04-02T03:07:33.462Z,2.42
2023-04-02T03:08:33.493Z,2.34
2023-04-02T03:09:33.471Z,2.40
2023-04-02T03:10:33.436Z,2.40
2023-04-02T03:11:33.449Z,2.38
2023-04-02T03:12:33.413Z,2.37
2023-04-02T03:13:33.435Z,2.39
2023-04-02T03:14:33.392Z,2.39
2023-04-02T03:15:33.596Z,2.32
2023-04-02T03:16:33.368Z,2.37
2023-04-02T03:17:33.397Z,2.41
2023-04-02T03:18:33.373Z,2.40
2023-04-02T03:19:33.372Z,2.39
2023-04-02T03:20:33.351Z,2.40
2023-04-02T03:21:33.367Z,2.43
2023-04-02T03:22:33.320Z,2.43
2023-04-02T03:23:33.306Z,2.41
2023-04-02T03:24:33.297Z,2.39
2023-04-02T03:25:33.541Z,2.42
2023-04-02T03:26:33.305Z,2.43
2023-04-02T03:27:33.252Z,2.42
2023-04-02T03:28:33.264Z,2.36
2023-04-02T03:29:33.226Z,2.37
2023-04-02T03:30:33.235Z,2.39
2023-04-02T03:31:33.278Z,2.40
2023-04-02T03:32:33.207Z,2.34
2023-04-02T03:33:33.198Z,2.42
2023-04-02T03:34:33.125Z,2.40
2023-04-02T03:35:33.372Z,2.39
2023-04-02T03:36:33.106Z,2.40
2023-04-02T03:37:33.074Z,2.37
2023-04-02T03:38:33.089Z,2.38
2023-04-02T03:39:33.055Z,2.40
2023-04-02T03:40:33.068Z,2.41
2023-04-02T03:41:33.046Z,2.37
2023-04-02T03:42:33.023Z,2.44
2023-04-02T03:43:33.034Z,2.42
2023-04-02T03:44:32.991Z,2.37
2023-04-02T03:45:33.079Z,2.40
2023-04-02T03:46:33.085Z,2.42
2023-04-02T03:47:33.071Z,2.45
2023-04-02T03:48:33.011Z,2.51
2023-04-02T03:49:32.963Z,2.50
2023-04-02T03:50:32.994Z,2.45
2023-04-02T03:51:32.950Z,2.45
2023-04-02T03:52:32.962Z,2.43
2023-04-02T03:53:32.951Z,2.44
2023-04-02T03:54:32.967Z,2.48
2023-04-02T03:55:33.110Z,2.45
2023-04-02T03:56:32.904Z,2.46
2023-04-02T03:57:32.995Z,2.42
2023-04-02T03:58:32.885Z,2.49
2023-04-02T03:59:32.888Z,2.47
2023-04-02T04:00:32.822Z,2.45
2023-04-02T04:01:32.883Z,2.41
2023-04-02T04:02:32.859Z,2.47
2023-04-02T04:03:32.882Z,2.44
2023-04-02T04:04:32.909Z,2.39
2023-04-02T04:05:33.168Z,2.41
2023-04-02T04:06:32.845Z,2.39
2023-04-02T04:07:32.844Z,2.38
2023-04-02T04:08:32.808Z,2.43
2023-04-02T04:09:32.789Z,2.40
2023-04-02T04:10:32.789Z,2.45
2023-04-02T04:11:32.783Z,2.51
2023-04-02T04:12:32.781Z,2.46
2023-04-02T04:13:32.786Z,2.49
2023-04-02T04:14:32.770Z,2.39
2023-04-02T04:15:32.918Z,2.45
2023-04-02T04:16:32.753Z,2.50
2023-04-02T04:17:32.753Z,2.52
2023-04-02T04:18:32.679Z,2.56
2023-04-02T04:19:32.679Z,2.45
2023-04-02T04:20:32.691Z,2.48
2023-04-02T04:21:32.661Z,2.46
2023-04-02T04:22:32.717Z,2.38
2023-04-02T04:23:32.668Z,2.51
2023-04-02T04:24:32.655Z,2.54
2023-04-02T04:25:32.621Z,2.41
2023-04-02T04:26:32.635Z,2.37
2023-04-02T04:27:32.619Z,2.40
2023-04-02T04:28:32.604Z,2.44
2023-04-02T04:29:32.587Z,2.39
2023-04-02T04:30:32.586Z,2.39
2023-04-02T04:31:32.582Z,2.44
2023-04-02T04:32:32.635Z,2.45
2023-04-02T04:33:32.555Z,2.42
2023-04-02T04:34:32.565Z,2.51
2023-04-02T04:35:32.675Z,2.47
2023-04-02T04:36:32.534Z,2.49
2023-04-02T04:37:32.564Z,2.45
2023-04-02T04:38:32.612Z,2.48
2023-04-02T04:39:32.571Z,2.47
2023-04-02T04:40:32.632Z,2.43
2023-04-02T04:41:32.579Z,2.41
2023-04-02T04:42:32.568Z,2.55
2023-04-02T04:43:32.549Z,2.48
2023-04-02T04:44:32.555Z,2.39
2023-04-02T04:45:32.704Z,2.45
2023-04-02T04:46:32.538Z,2.45
2023-04-02T04:47:32.563Z,2.42
2023-04-02T04:48:33.529Z,2.48
2023-04-02T04:49:32.660Z,2.40
2023-04-02T04:50:32.684Z,2.36
2023-04-02T04:51:32.657Z,2.48
2023-04-02T04:52:32.650Z,2.51
2023-04-02T04:53:32.607Z,2.47
2023-04-02T04:54:32.623Z,2.52
2023-04-02T04:55:32.666Z,2.51
2023-04-02T04:56:32.548Z,2.43
2023-04-02T04:57:32.547Z,2.47
2023-04-02T04:58:32.554Z,2.39
2023-04-02T04:59:32.520Z,2.46
2023-04-02T05:00:32.519Z,2.44
2023-04-02T05:01:32.531Z,2.42
2023-04-02T05:02:32.489Z,2.37
2023-04-02T05:03:32.440Z,2.37
2023-04-02T05:04:32.429Z,2.37
2023-04-02T05:05:32.423Z,2.29
2023-04-02T05:06:32.364Z,2.38
2023-04-02T05:07:32.377Z,2.39
2023-04-02T05:08:32.358Z,2.30
2023-04-02T05:09:32.347Z,2.34
2023-04-02T05:10:32.307Z,2.38
2023-04-02T05:11:32.313Z,2.30
2023-04-02T05:12:32.300Z,2.34
2023-04-02T05:13:32.277Z,2.27
2023-04-02T05:14:32.283Z,2.30
2023-04-02T05:15:32.316Z,2.29
2023-04-02T05:16:32.314Z,2.33
2023-04-02T05:17:32.311Z,2.28
2023-04-02T05:18:32.246Z,2.35
2023-04-02T05:19:32.236Z,2.28
2023-04-02T05:20:32.219Z,2.31
2023-04-02T05:21:32.223Z,2.25
2023-04-02T05:22:32.234Z,2.26
2023-04-02T05:23:32.228Z,2.30
2023-04-02T05:24:32.177Z,2.20
2023-04-02T05:25:32.151Z,2.23
2023-04-02T05:26:32.183Z,2.32
2023-04-02T05:27:32.182Z,2.28
2023-04-02T05:28:32.198Z,2.24
2023-04-02T05:29:32.176Z,2.23
2023-04-02T05:30:32.164Z,2.29
2023-04-02T05:31:32.189Z,2.26
2023-04-02T05:32:32.154Z,2.29
2023-04-02T05:33:32.120Z,2.24
2023-04-02T05:34:32.113Z,2.31
2023-04-02T05:35:32.085Z,2.18
2023-04-02T05:36:32.066Z,2.22
2023-04-02T05:37:32.043Z,2.16
2023-04-02T05:38:32.060Z,2.21
2023-04-02T05:39:32.052Z,2.29
2023-04-02T05:40:32.049Z,2.22
2023-04-02T05:41:32.010Z,2.16
2023-04-02T05:42:31.965Z,2.15
2023-04-02T05:43:31.966Z,2.13
2023-04-02T05:44:31.983Z,2.16
2023-04-02T05:45:31.988Z,2.14
2023-04-02T05:46:31.956Z,2.16
2023-04-02T05:47:31.979Z,2.15
2023-04-02T05:48:31.984Z,2.13
2023-04-02T05:49:32.027Z,2.14
2023-04-02T05:50:32.066Z,2.13
2023-04-02T05:51:32.058Z,2.11
2023-04-02T05:52:32.116Z,2.14
2023-04-02T05:53:32.131Z,2.13
2023-04-02T05:54:32.209Z,2.17
2023-04-02T05:55:32.233Z,2.13
2023-04-02T05:56:32.278Z,2.18
2023-04-02T05:57:42.405Z,2.14
2023-04-02T05:58:36.135Z,2.14
2023-04-02T05:59:32.226Z,2.15
2023-04-02T06:00:32.218Z,2.15
2023-04-02T06:01:32.198Z,2.17
2023-04-02T06:02:32.273Z,2.17
2023-04-02T06:03:32.208Z,2.19
2023-04-02T06:04:32.116Z,2.14
2023-04-02T06:05:32.075Z,2.15
2023-04-02T06:06:32.032Z,2.15
2023-04-02T06:07:32.014Z,2.17
2023-04-02T06:08:31.972Z,2.15
2023-04-02T06:09:31.942Z,2.12
2023-04-02T06:10:31.916Z,2.07
2023-04-02T06:11:31.888Z,2.15
2023-04-02T06:12:31.850Z,2.13
2023-04-02T06:13:31.824Z,2.11
2023-04-02T06:14:31.791Z,2.10
2023-04-02T06:15:31.784Z,2.11
2023-04-02T06:16:31.820Z,2.07
2023-04-02T06:17:31.744Z,2.09
2023-04-02T06:18:31.722Z,2.11
2023-04-02T06:19:31.659Z,2.12
2023-04-02T06:20:31.654Z,2.10
2023-04-02T06:21:31.626Z,2.10
2023-04-02T06:22:31.588Z,2.10
2023-04-02T06:23:31.564Z,2.03
2023-04-02T06:24:31.533Z,2.01
2023-04-02T06:25:31.526Z,2.04
2023-04-02T06:26:31.472Z,2.02
2023-04-02T06:27:31.492Z,2.07
2023-04-02T06:28:31.454Z,2.06
2023-04-02T06:29:31.411Z,2.06
2023-04-02T06:30:31.462Z,2.04
2023-04-02T06:31:31.443Z,1.99
2023-04-02T06:32:31.460Z,2.03
2023-04-02T06:33:31.451Z,1.99
2023-04-02T06:34:31.454Z,2.00
2023-04-02T06:35:31.456Z,1.99
2023-04-02T06:36:31.480Z,1.98
2023-04-02T06:37:31.508Z,1.99
2023-04-02T06:38:31.562Z,1.97
2023-04-02T06:39:31.515Z,1.97
2023-04-02T06:40:31.548Z,1.97
2023-04-02T06:41:31.538Z,2.03
2023-04-02T06:42:31.587Z,2.02
2023-04-02T06:43:31.559Z,1.99
2023-04-02T06:44:31.579Z,1.99
2023-04-02T06:45:31.589Z,1.94
2023-04-02T06:46:31.687Z,1.90
2023-04-02T06:47:31.638Z,1.92
2023-04-02T06:48:31.667Z,1.92
2023-04-02T06:49:31.645Z,1.92
2023-04-02T06:50:31.675Z,1.91
2023-04-02T06:51:31.677Z,1.91
2023-04-02T06:52:33.330Z,1.90
2023-04-02T06:53:31.654Z,1.92
2023-04-02T06:54:31.658Z,1.92
2023-04-02T06:55:31.709Z,1.91
2023-04-02T06:56:31.594Z,1.89
2023-04-02T06:57:31.616Z,1.89
2023-04-02T06:58:31.524Z,1.87
2023-04-02T06:59:31.552Z,1.84
2023-04-02T07:00:31.508Z,1.82
2023-04-02T07:01:31.498Z,1.82
2023-04-02T07:02:31.489Z,1.83
2023-04-02T07:03:31.450Z,1.84
2023-04-02T07:04:31.467Z,1.86
2023-04-02T07:05:31.424Z,1.84
2023-04-02T07:06:31.390Z,1.81
2023-04-02T07:07:31.361Z,1.77
2023-04-02T07:08:31.365Z,1.84
2023-04-02T07:09:31.318Z,1.81
2023-04-02T07:10:31.324Z,1.78
2023-04-02T07:11:31.261Z,1.83
2023-04-02T07:12:31.250Z,1.85
2023-04-02T07:13:31.273Z,1.83
2023-04-02T07:14:31.212Z,1.76
2023-04-02T07:15:31.198Z,1.75
2023-04-02T07:16:31.243Z,1.77
2023-04-02T07:17:31.178Z,1.80
2023-04-02T07:18:31.133Z,1.74
2023-04-02T07:19:31.105Z,1.74
2023-04-02T07:20:31.110Z,1.78
2023-04-02T07:21:31.065Z,1.75
2023-04-02T07:22:31.043Z,1.71
2023-04-02T07:23:31.031Z,1.74
2023-04-02T07:24:31.029Z,1.75
2023-04-02T07:25:31.006Z,1.69
2023-04-02T07:26:30.951Z,1.69
2023-04-02T07:27:30.966Z,1.67
2023-04-02T07:28:30.932Z,1.62
2023-04-02T07:29:30.909Z,1.67
2023-04-02T07:30:30.877Z,1.69
2023-04-02T07:31:30.895Z,1.70
2023-04-02T07:32:30.965Z,1.63
2023-04-02T07:33:30.848Z,1.65
2023-04-02T07:34:30.776Z,1.62
2023-04-02T07:35:30.739Z,1.65
2023-04-02T07:36:30.790Z,1.65
2023-04-02T07:37:30.776Z,1.66
2023-04-02T07:38:30.837Z,1.62
2023-04-02T07:39:30.852Z,1.60
2023-04-02T07:40:30.891Z,1.55
2023-04-02T07:41:30.935Z,1.52
2023-04-02T07:42:30.962Z,1.53
2023-04-02T07:43:31.028Z,1.56
2023-04-02T07:44:31.083Z,1.50
2023-04-02T07:45:31.084Z,1.56
2023-04-02T07:46:31.166Z,1.57
2023-04-02T07:47:31.235Z,1.57
2023-04-02T07:48:31.200Z,1.58
2023-04-02T07:49:31.257Z,1.57
2023-04-02T07:50:31.292Z,1.57
2023-04-02T07:51:31.298Z,1.55
2023-04-02T07:52:31.342Z,1.54
2023-04-02T07:53:31.403Z,1.49
2023-04-02T07:54:31.397Z,1.52
2023-04-02T07:55:31.453Z,1.53
2023-04-02T07:56:31.481Z,1.51
2023-04-02T07:57:31.615Z,1.58
2023-04-02T07:58:31.531Z,1.57
2023-04-02T07:59:31.564Z,1.57
2023-04-02T08:00:31.600Z,1.56
2023-04-02T08:01:31.628Z,1.59
2023-04-02T08:02:31.727Z,1.59
2023-04-02T08:03:31.783Z,1.54
2023-04-02T08:04:31.761Z,1.55
2023-04-02T08:05:31.798Z,1.52
2023-04-02T08:06:31.852Z,1.49
2023-04-02T08:07:31.885Z,1.48
2023-04-02T08:08:31.891Z,1.44
2023-04-02T08:09:31.975Z,1.39
2023-04-02T08:10:32.004Z,1.39
2023-04-02T08:11:32.089Z,1.40
2023-04-02T08:12:32.079Z,1.42
2023-04-02T08:13:32.116Z,1.43
2023-04-02T08:14:32.116Z,1.42
2023-04-02T08:15:32.246Z,1.41
2023-04-02T08:16:32.260Z,1.47
2023-04-02T08:17:32.242Z,1.41
2023-04-02T08:18:32.281Z,1.38
2023-04-02T08:19:36.857Z,1.33
2023-04-02T08:20:33.268Z,1.33
2023-04-02T08:21:32.265Z,1.33
2023-04-02T08:22:32.220Z,1.32
2023-04-02T08:23:32.295Z,1.30
2023-04-02T08:24:32.181Z,1.25
2023-04-02T08:25:32.265Z,1.24
2023-04-02T08:26:32.148Z,1.22
2023-04-02T08:27:32.160Z,1.23
2023-04-02T08:28:32.140Z,1.18
2023-04-02T08:29:32.082Z,1.20
2023-04-02T08:30:32.060Z,1.18
2023-04-02T08:31:32.059Z,1.17
2023-04-02T08:32:32.187Z,1.14
2023-04-02T08:33:32.133Z,1.19
2023-04-02T08:34:32.201Z,1.18
2023-04-02T08:35:32.175Z,1.20
2023-04-02T08:36:32.237Z,1.17
2023-04-02T08:37:32.236Z,1.12
2023-04-02T08:38:33.267Z,1.15
2023-04-02T08:39:32.325Z,1.17
2023-04-02T08:40:32.369Z,1.16
2023-04-02T08:41:32.414Z,1.15
2023-04-02T08:42:32.443Z,1.16
2023-04-02T08:43:32.487Z,1.19
2023-04-02T08:44:32.529Z,1.18
2023-04-02T08:45:32.558Z,1.15
2023-04-02T08:46:32.701Z,1.16
2023-04-02T08:47:32.633Z,1.13
2023-04-02T08:48:33.271Z,1.14
2023-04-02T08:49:32.696Z,1.17
2023-04-02T08:50:32.702Z,1.19
2023-04-02T08:51:32.730Z,1.20
2023-04-02T08:52:32.749Z,1.24
2023-04-02T08:53:32.793Z,1.28
2023-04-02T08:54:32.815Z,1.34
2023-04-02T08:55:33.149Z,1.38
2023-04-02T08:56:32.876Z,1.39
2023-04-02T08:57:33.070Z,1.43
2023-04-02T08:58:32.938Z,1.43
2023-04-02T08:59:32.980Z,1.48
2023-04-02T09:00:32.985Z,1.40
2023-04-02T09:01:33.004Z,1.36
2023-04-02T09:02:33.086Z,1.28
2023-04-02T09:03:33.023Z,1.30
2023-04-02T09:04:33.074Z,1.31
2023-04-02T09:05:33.414Z,1.33
2023-04-02T09:06:33.096Z,1.35
2023-04-02T09:07:33.136Z,1.40
2023-04-02T09:08:33.197Z,1.45
2023-04-02T09:09:33.201Z,1.45
2023-04-02T09:10:33.241Z,1.44
2023-04-02T09:11:33.269Z,1.48
2023-04-02T09:12:33.299Z,1.49
2023-04-02T09:13:33.352Z,1.48
2023-04-02T09:14:33.368Z,1.48
2023-04-02T09:15:33.626Z,1.48
2023-04-02T09:16:33.433Z,1.51
2023-04-02T09:17:42.792Z,1.51
2023-04-02T09:18:34.450Z,1.52
2023-04-02T09:19:33.425Z,1.52
2023-04-02T09:20:33.396Z,1.53
2023-04-02T09:21:33.344Z,1.52
2023-04-02T09:22:33.307Z,1.56
2023-04-02T09:23:33.321Z,1.52
2023-04-02T09:24:33.283Z,1.52
2023-04-02T09:25:33.516Z,1.53
2023-04-02T09:26:33.219Z,1.57
2023-04-02T09:27:33.208Z,1.57
2023-04-02T09:28:33.220Z,1.55
2023-04-02T09:29:33.174Z,1.55
2023-04-02T09:30:33.248Z,1.58
2023-04-02T09:31:33.291Z,1.57
2023-04-02T09:32:33.225Z,1.56
2023-04-02T09:33:33.271Z,1.55
2023-04-02T09:34:33.315Z,1.56
2023-04-02T09:35:33.310Z,1.58
2023-04-02T09:36:33.412Z,1.57
2023-04-02T09:37:33.414Z,1.52
2023-04-02T09:38:33.408Z,1.54
2023-04-02T09:39:33.427Z,1.57
2023-04-02T09:40:33.452Z,1.55
2023-04-02T09:41:35.685Z,1.54
2023-04-02T09:42:33.458Z,1.57
2023-04-02T09:43:33.436Z,1.57
2023-04-02T09:44:33.397Z,1.57
2023-04-02T09:45:33.556Z,1.56
2023-04-02T09:46:33.386Z,1.56
2023-04-02T09:47:33.321Z,1.55
2023-04-02T09:48:33.305Z,1.51
2023-04-02T09:49:33.269Z,1.51
2023-04-02T09:50:33.268Z,1.50
2023-04-02T09:51:33.223Z,1.50
2023-04-02T09:52:33.202Z,1.47
2023-04-02T09:53:33.172Z,1.50
2023-04-02T09:54:33.119Z,1.46
2023-04-02T09:55:33.092Z,1.47
2023-04-02T09:56:33.093Z,1.46
2023-04-02T09:57:33.106Z,1.43
2023-04-02T09:58:33.046Z,1.45
2023-04-02T09:59:33.020Z,1.45
2023-04-02T10:00:32.985Z,1.47
2023-04-02T10:01:32.995Z,1.41
2023-04-02T10:02:33.008Z,1.44
2023-04-02T10:03:32.921Z,1.38
2023-04-02T10:04:32.930Z,1.38
2023-04-02T10:05:40.493Z,1.32
2023-04-02T10:06:33.848Z,1.33
2023-04-02T10:07:32.799Z,1.32
2023-04-02T10:08:32.783Z,1.28
2023-04-02T10:09:32.825Z,1.25
2023-04-02T10:10:32.801Z,1.27
2023-04-02T10:11:43.790Z,1.23
2023-04-02T10:12:33.702Z,1.23
2023-04-02T10:13:32.697Z,1.24
2023-04-02T10:14:32.636Z,1.26
2023-04-02T10:15:32.612Z,1.28
2023-04-02T10:16:32.663Z,1.30
2023-04-02T10:17:32.587Z,1.33
2023-04-02T10:18:32.528Z,1.34
2023-04-02T10:19:32.552Z,1.34
2023-04-02T10:20:36.330Z,1.33
2023-04-02T10:21:33.475Z,1.33
2023-04-02T10:22:32.435Z,1.32
2023-04-02T10:23:32.407Z,1.31
2023-04-02T10:24:32.390Z,1.30
2023-04-02T10:25:32.365Z,1.27
2023-04-02T10:26:33.245Z,1.24
2023-04-02T10:27:32.274Z,1.23
2023-04-02T10:28:32.262Z,1.26
2023-04-02T10:29:32.233Z,1.28
2023-04-02T10:30:32.203Z,1.25
2023-04-02T10:31:32.202Z,1.23
2023-04-02T10:32:32.240Z,1.25
2023-04-02T10:33:32.305Z,1.17
2023-04-02T10:34:32.325Z,1.14
2023-04-02T10:35:32.412Z,1.12
2023-04-02T10:36:32.350Z,1.14
2023-04-02T10:37:32.362Z,1.11
2023-04-02T10:38:32.388Z,1.05
2023-04-02T10:39:32.435Z,1.05
2023-04-02T10:40:32.430Z,1.02
2023-04-02T10:41:32.459Z,1.03
2023-04-02T10:42:32.484Z,1.03
2023-04-02T10:43:32.507Z,1.08
2023-04-02T10:44:32.543Z,1.09
2023-04-02T10:45:32.594Z,1.11
2023-04-02T10:46:32.666Z,1.11
2023-04-02T10:47:32.649Z,1.15
2023-04-02T10:48:32.686Z,1.12
2023-04-02T10:49:32.725Z,1.14
2023-04-02T10:50:32.751Z,1.11
2023-04-02T10:51:32.782Z,1.13
2023-04-02T10:52:32.808Z,1.12
2023-04-02T10:53:32.866Z,1.12
2023-04-02T10:54:32.886Z,1.11
2023-04-02T10:55:32.976Z,1.15
2023-04-02T10:56:44.152Z,1.15
2023-04-02T10:57:34.097Z,1.16
2023-04-02T10:58:32.904Z,1.16
2023-04-02T10:59:32.914Z,1.16
2023-04-02T11:00:32.876Z,1.16
2023-04-02T11:01:32.942Z,1.16
2023-04-02T11:02:32.922Z,1.18
2023-04-02T11:03:32.874Z,1.16
2023-04-02T11:04:32.813Z,1.16
2023-04-02T11:05:32.827Z,1.15
2023-04-02T11:06:32.766Z,1.17
2023-04-02T11:07:32.742Z,1.15
2023-04-02T11:08:32.722Z,1.15
2023-04-02T11:09:32.746Z,1.15
2023-04-02T11:10:32.759Z,1.16
2023-04-02T11:11:32.823Z,1.15
2023-04-02T11:12:32.852Z,1.15
2023-04-02T11:13:32.905Z,1.15
2023-04-02T11:14:32.909Z,1.17
2023-04-02T11:15:32.943Z,1.18
2023-04-02T11:16:33.038Z,1.22
2023-04-02T11:17:33.014Z,1.23
2023-04-02T11:18:33.039Z,1.19
2023-04-02T11:19:33.077Z,1.16
2023-04-02T11:20:33.103Z,1.14
2023-04-02T11:21:33.114Z,1.12
2023-04-02T11:22:33.162Z,1.15
2023-04-02T11:23:33.199Z,1.12
2023-04-02T11:24:33.206Z,1.12
2023-04-02T11:25:33.439Z,1.12
2023-04-02T11:26:33.288Z,1.13
2023-04-02T11:27:33.303Z,1.15
2023-04-02T11:28:33.337Z,1.15
2023-04-02T11:29:33.365Z,1.15
2023-04-02T11:30:33.394Z,1.14
2023-04-02T11:31:33.507Z,1.12
2023-04-02T11:32:33.450Z,1.12
2023-04-02T11:33:38.144Z,1.13
2023-04-02T11:34:34.410Z,1.13
2023-04-02T11:35:33.583Z,1.13
2023-04-02T11:36:33.330Z,1.13
2023-04-02T11:37:33.352Z,1.09
2023-04-02T11:38:33.258Z,1.10
2023-04-02T11:39:33.271Z,1.08
2023-04-02T11:40:33.243Z,1.06
2023-04-02T11:41:33.236Z,1.08
2023-04-02T11:42:33.160Z,1.07
2023-04-02T11:43:33.238Z,1.07
2023-04-02T11:44:33.138Z,1.06
2023-04-02T11:45:40.175Z,1.08
2023-04-02T11:46:34.167Z,1.08
2023-04-02T11:47:33.067Z,1.09
2023-04-02T11:48:33.046Z,1.10
2023-04-02T11:49:33.032Z,1.09
2023-04-02T11:50:32.989Z,1.00
2023-04-02T11:51:32.952Z,0.96
2023-04-02T11:52:32.960Z,0.94
2023-04-02T11:53:32.953Z,0.95
2023-04-02T11:54:32.902Z,0.96
2023-04-02T11:55:32.907Z,0.99
2023-04-02T11:56:32.848Z,0.94
2023-04-02T11:57:32.951Z,0.95
2023-04-02T11:58:32.932Z,0.92
2023-04-02T11:59:32.985Z,0.93
2023-04-02T12:00:33.219Z,0.93
2023-04-02T12:01:33.013Z,0.92
2023-04-02T12:02:33.130Z,0.96
2023-04-02T12:03:33.067Z,0.94
2023-04-02T12:04:33.101Z,0.95
2023-04-02T12:05:33.265Z,0.91
2023-04-02T12:06:33.169Z,0.97
2023-04-02T12:07:33.203Z,1.00
2023-04-02T12:08:33.236Z,1.01
2023-04-02T12:09:33.255Z,1.01
2023-04-02T12:10:33.296Z,1.06
2023-04-02T12:11:33.297Z,1.05
2023-04-02T12:12:33.286Z,1.08
2023-04-02T12:13:33.334Z,1.06
2023-04-02T12:14:33.348Z,1.08
2023-04-02T12:15:33.528Z,1.08
2023-04-02T12:16:33.463Z,1.06
2023-04-02T12:17:33.471Z,1.10
2023-04-02T12:18:33.482Z,1.09
2023-04-02T12:19:33.490Z,1.12
2023-04-02T12:20:33.614Z,1.07
2023-04-02T12:21:33.535Z,1.09
2023-04-02T12:22:33.637Z,1.09
2023-04-02T12:23:33.593Z,1.10
2023-04-02T12:24:33.637Z,1.06
2023-04-02T12:25:33.706Z,1.07
2023-04-02T12:26:33.685Z,1.06
2023-04-02T12:27:33.720Z,1.05
2023-04-02T12:28:33.772Z,1.04
2023-04-02T12:29:33.779Z,1.02
2023-04-02T12:30:34.007Z,1.05
2023-04-02T12:31:33.893Z,1.06
2023-04-02T12:32:33.858Z,1.07
2023-04-02T12:33:33.879Z,1.07
2023-04-02T12:34:33.875Z,1.06
2023-04-02T12:35:33.997Z,1.05
2023-04-02T12:36:33.898Z,0.99
2023-04-02T12:37:33.897Z,0.98
2023-04-02T12:38:33.926Z,0.85
2023-04-02T12:39:33.918Z,0.79
2023-04-02T12:40:34.259Z,0.74
2023-04-02T12:41:33.952Z,0.71
2023-04-02T12:42:33.973Z,0.76
2023-04-02T12:43:33.985Z,0.69
2023-04-02T12:44:33.974Z,0.50
2023-04-02T12:45:34.016Z,0.50
2023-04-02T12:46:34.047Z,0.51
2023-04-02T12:47:34.082Z,0.43
2023-04-02T12:48:34.039Z,0.48
2023-04-02T12:49:34.030Z,0.54
2023-04-02T12:50:34.377Z,0.60
2023-04-02T12:51:34.072Z,0.57
2023-04-02T12:52:34.068Z,0.58
2023-04-02T12:53:34.085Z,0.59
2023-04-02T12:54:34.139Z,0.50
2023-04-02T12:55:34.163Z,0.52
2023-04-02T12:56:34.179Z,0.51
2023-04-02T12:57:34.224Z,0.51
2023-04-02T12:58:34.204Z,0.50
2023-04-02T12:59:34.202Z,0.50
2023-04-02T13:00:34.443Z,0.50
2023-04-02T13:01:34.248Z,0.50
2023-04-02T13:02:34.398Z,0.49
2023-04-02T13:03:34.252Z,0.50
2023-04-02T13:04:34.273Z,0.48
2023-04-02T13:05:34.268Z,0.54
2023-04-02T13:06:34.287Z,0.58
2023-04-02T13:07:34.294Z,0.64
2023-04-02T13:08:34.323Z,0.68
2023-04-02T13:09:34.347Z,0.72
2023-04-02T13:10:34.670Z,0.73
2023-04-02T13:11:34.405Z,0.74
2023-04-02T13:12:34.455Z,0.75
2023-04-02T13:13:34.478Z,0.78
2023-04-02T13:14:34.541Z,0.86
2023-04-02T13:15:34.613Z,0.91
2023-04-02T13:16:34.760Z,1.02
2023-04-02T13:17:34.619Z,1.11
2023-04-02T13:18:34.650Z,1.32